Havelock, Nebraska
Current Conditions -  °F | °C
As of 9:39 PM on Wednesday 22 Oct 2014 (Local Time) from KLNK Reporting Station
Light Rain Light Rain  
Wind Chill: 63°   Ceiling: 5500
Heat Index: 63°   Visibility: 5mi
Dew Point: 59°   Wind: 16mph
Humidity: 87%   Direction: 180°S
Pressure: 30.06"   Gusts: NA
Location:  40.8505°N, 96.6337°W
Report Text: KLNK 230239Z 18014KT 5SM -RA BR SCT019 BKN055 OVC070 17/15 A3006 RMK AO2 P0003 T01720150
Loading
Personal Weather Stations






























Interactive Weather Map
Tropical Storm Tracking
New forecast layout! Learn more

10-Day Weather Forecast

Advertisements
Track Severe Weather on mobile